Time;durP1;ratioP1;P1;durP2;ratioP2;P2;SDS_P1;SDS_P2;PMS_P1;PMS_P2;Temp;Humidity;BMP_temperature;BMP_pressure;BME280_temperature;BME280_humidity;BME280_pressure;Samples;Min_cycle;Max_cycle;Signal;HPM_P1;HPM_P2
2021/11/13 00:00:46;;;;;;;12.93;11.35;;;;;;;0.55;100.00;95714.03;5090313;28;24424;-72
2021/11/13 00:03:14;;;;;;;15.13;11.60;;;;;;;0.60;100.00;95722.41;5090271;28;24446;-75
2021/11/13 00:05:41;;;;;;;12.68;11.20;;;;;;;0.70;100.00;95708.53;5089866;28;24417;-72
2021/11/13 00:08:10;;;;;;;12.95;11.55;;;;;;;0.75;100.00;95696.53;5090427;28;24820;-72
2021/11/13 00:10:36;;;;;;;13.15;11.75;;;;;;;0.78;100.00;95705.78;5089891;28;24425;-75
2021/11/13 00:13:05;;;;;;;13.20;11.18;;;;;;;0.83;100.00;95706.53;5090363;28;24433;-75
2021/11/13 00:15:32;;;;;;;13.85;11.63;;;;;;;0.82;100.00;95712.50;5090013;28;24428;-75
2021/11/13 00:17:59;;;;;;;25.05;20.02;;;;;;;0.73;100.00;95706.75;5090122;28;24421;-75
2021/11/13 00:20:27;;;;;;;22.90;19.95;;;;;;;0.60;100.00;95707.13;5089959;28;24959;-73
2021/11/13 00:22:53;;;;;;;19.90;17.27;;;;;;;0.53;100.00;95703.88;5093635;28;24616;-73
2021/11/13 00:25:22;;;;;;;22.05;15.88;;;;;;;0.42;100.00;95718.59;5093203;28;24448;-74
2021/11/13 00:27:48;;;;;;;17.08;15.32;;;;;;;0.38;100.00;95722.09;5093581;28;24497;-73
2021/11/13 00:30:15;;;;;;;17.05;14.48;;;;;;;0.43;100.00;95717.72;5093682;28;24421;-73
2021/11/13 00:32:43;;;;;;;17.00;14.13;;;;;;;0.37;100.00;95717.84;5093574;28;24437;-75
2021/11/13 00:35:11;;;;;;;13.90;12.45;;;;;;;0.38;100.00;95715.28;5093343;28;24406;-75
2021/11/13 00:37:38;;;;;;;13.50;12.10;;;;;;;0.43;100.00;95718.53;5093457;28;25028;-75
2021/11/13 00:40:05;;;;;;;12.00;10.73;;;;;;;0.47;100.00;95714.22;5093542;28;24985;-73
2021/11/13 00:42:33;;;;;;;12.07;10.10;;;;;;;0.35;100.00;95709.41;5093560;28;24520;-74
2021/11/13 00:45:00;;;;;;;13.75;10.07;;;;;;;0.14;100.00;95706.47;5093274;28;24445;-75
2021/11/13 00:47:27;;;;;;;15.70;9.90;;;;;;;0.06;100.00;95710.91;5093360;28;24420;-73
2021/11/13 00:49:53;;;;;;;11.80;9.55;;;;;;;0.11;100.00;95698.06;5093341;28;24772;-75
2021/11/13 00:52:20;;;;;;;20.85;16.55;;;;;;;0.35;100.00;95691.59;5093114;28;24422;-72
2021/11/13 00:54:46;;;;;;;20.98;16.00;;;;;;;0.36;100.00;95691.53;5093071;28;24414;-74
2021/11/13 00:57:13;;;;;;;17.23;14.48;;;;;;;0.29;100.00;95695.09;5093278;28;24426;-74
2021/11/13 00:59:40;;;;;;;16.67;14.00;;;;;;;0.18;100.00;95699.59;5093182;28;24425;-74
2021/11/13 01:02:07;;;;;;;15.25;13.18;;;;;;;0.19;100.00;95694.50;5092997;28;24429;-73
2021/11/13 01:04:35;;;;;;;13.80;12.35;;;;;;;0.13;100.00;95704.00;5092575;28;24449;-73
2021/11/13 01:07:01;;;;;;;13.93;11.30;;;;;;;-0.04;100.00;95722.19;5092930;28;24421;-75
2021/11/13 01:09:28;;;;;;;10.90;9.90;;;;;;;-0.11;100.00;95715.53;5093094;28;24421;-74
2021/11/13 01:11:55;;;;;;;9.60;8.52;;;;;;;0.02;100.00;95731.41;5093025;28;24810;-75
2021/11/13 01:14:21;;;;;;;9.85;8.85;;;;;;;0.20;100.00;95716.53;5092874;28;24521;-74
2021/11/13 01:16:49;;;;;;;14.43;13.02;;;;;;;0.47;100.00;95719.31;5092681;28;24425;-72
2021/11/13 01:19:16;;;;;;;24.88;17.00;;;;;;;0.40;100.00;95727.97;5092609;28;24982;-73
2021/11/13 01:21:42;;;;;;;19.60;17.05;;;;;;;0.16;100.00;95735.31;5092558;28;24441;-72
2021/11/13 01:24:09;;;;;;;18.10;16.17;;;;;;;0.09;100.00;95728.69;5092493;28;24449;-75
2021/11/13 01:26:37;;;;;;;20.03;16.17;;;;;;;0.15;100.00;95732.78;5092485;28;24505;-74
2021/11/13 01:29:04;;;;;;;21.23;17.55;;;;;;;0.21;100.00;95723.31;5092691;28;24421;-75
2021/11/13 01:31:30;;;;;;;17.98;15.82;;;;;;;0.05;100.00;95731.34;5092401;28;24430;-74
2021/11/13 01:33:59;;;;;;;18.50;13.48;;;;;;;-0.08;100.00;95736.69;5091941;28;24414;-74
2021/11/13 01:36:25;;;;;;;17.80;11.65;;;;;;;-0.02;100.00;95730.63;5092286;28;24941;-72
2021/11/13 01:38:54;;;;;;;17.00;15.25;;;;;;;0.04;100.00;95743.25;5092223;28;24776;-73
2021/11/13 01:41:21;;;;;;;53.13;11.33;;;;;;;-0.12;100.00;95744.44;5092335;28;24531;-75
2021/11/13 01:43:47;;;;;;;49.15;10.90;;;;;;;-0.26;100.00;95737.94;5092280;28;24512;-74
2021/11/13 01:46:14;;;;;;;24.05;16.13;;;;;;;-0.05;100.00;95725.59;5091894;28;24421;-74
2021/11/13 01:48:40;;;;;;;25.60;16.70;;;;;;;-0.12;100.00;95729.16;5091873;28;24414;-72
2021/11/13 01:51:19;;;;;;;17.00;13.13;;;;;;;-0.13;100.00;95714.75;5092048;28;24967;-75
2021/11/13 01:53:46;;;;;;;19.20;14.73;;;;;;;-0.04;100.00;95712.00;5092095;28;24800;-75
2021/11/13 01:56:17;;;;;;;14.48;12.30;;;;;;;-0.06;100.00;95713.75;5091553;28;24464;-73
2021/11/13 01:58:44;;;;;;;14.30;11.40;;;;;;;-0.06;100.00;95711.22;5092334;28;24422;-74
2021/11/13 02:01:10;;;;;;;13.30;11.25;;;;;;;-0.06;100.00;95708.66;5091762;28;24422;-74
2021/11/13 02:03:37;;;;;;;12.73;11.40;;;;;;;0.03;100.00;95713.53;5091782;28;24985;-73
2021/11/13 02:06:03;;;;;;;31.73;12.07;;;;;;;-0.09;100.00;95711.28;5091464;28;24959;-72
2021/11/13 02:08:31;;;;;;;41.92;12.82;;;;;;;-0.11;100.00;95718.94;5091694;28;24959;-74
2021/11/13 02:10:58;;;;;;;25.52;10.77;;;;;;;-0.14;100.00;95718.19;5091591;28;24414;-75
2021/11/13 02:13:24;;;;;;;18.42;10.32;;;;;;;-0.10;100.00;95712.16;5091534;28;24414;-74
2021/11/13 02:15:51;;;;;;;11.07;9.95;;;;;;;-0.02;100.00;95705.16;5091273;28;24981;-75
2021/11/13 02:18:17;;;;;;;36.38;9.93;;;;;;;0.01;100.00;95709.38;5091558;28;24426;-72
2021/11/13 02:20:45;;;;;;;55.90;10.27;;;;;;;-0.29;100.00;95706.63;5091353;28;24425;-70
2021/11/13 02:23:15;;;;;;;28.10;9.40;;;;;;;-0.18;100.00;95721.66;5091528;28;24425;-73
2021/11/13 02:25:42;;;;;;;45.45;9.50;;;;;;;-0.32;100.00;95725.34;5091031;28;24441;-72
2021/11/13 02:28:11;;;;;;;58.97;9.40;;;;;;;-0.21;100.00;95716.63;5091424;28;24425;-72
2021/11/13 02:30:38;;;;;;;36.88;8.20;;;;;;;-0.17;100.00;95716.53;5091211;28;24985;-74
2021/11/13 02:33:05;;;;;;;62.90;8.85;;;;;;;-0.12;100.00;95724.06;5091216;28;25163;-74
2021/11/13 02:35:33;;;;;;;46.47;8.75;;;;;;;-0.25;100.00;95726.88;5091049;28;24417;-73
2021/11/13 02:38:10;;;;;;;159.02;10.40;;;;;;;-0.43;100.00;95737.44;5091294;28;24449;-74
2021/11/13 02:40:37;;;;;;;57.92;8.27;;;;;;;-0.40;100.00;95726.38;5090912;28;24414;-74
2021/11/13 02:43:04;;;;;;;37.40;8.70;;;;;;;-0.27;100.00;95725.22;5091247;28;24440;-73
2021/11/13 02:45:32;;;;;;;22.25;8.18;;;;;;;-0.18;100.00;95725.03;5089978;28;24445;-73
2021/11/13 02:48:02;;;;;;;26.65;14.32;;;;;;;-0.04;100.00;95732.34;5091173;28;24426;-73
2021/11/13 02:50:29;;;;;;;32.70;13.85;;;;;;;-0.07;100.00;95724.81;5091182;28;24408;-74
2021/11/13 02:52:59;;;;;;;46.10;12.18;;;;;;;-0.15;100.00;95730.06;5090941;28;24445;-74
2021/11/13 02:55:28;;;;;;;27.40;12.05;;;;;;;-0.18;100.00;95729.31;5090728;28;24410;-74
2021/11/13 02:57:55;;;;;;;36.35;12.30;;;;;;;-0.05;100.00;95733.25;5091049;28;24421;-74
2021/11/13 03:00:25;;;;;;;21.73;9.07;;;;;;;-0.17;100.00;95736.91;5090867;28;24421;-74
2021/11/13 03:02:51;;;;;;;21.40;8.32;;;;;;;-0.56;100.00;95744.47;5090803;28;24484;-74
2021/11/13 03:05:23;;;;;;;12.00;7.85;;;;;;;-0.64;100.00;95737.88;5090329;28;24449;-74
2021/11/13 03:07:50;;;;;;;14.48;7.90;;;;;;;-0.88;100.00;95739.19;5090597;28;24418;-74
2021/11/13 03:10:17;;;;;;;9.57;6.78;;;;;;;-0.69;100.00;95739.66;5091012;28;24422;-74
2021/11/13 03:12:45;;;;;;;8.63;7.72;;;;;;;-0.48;100.00;95739.25;5090993;28;24425;-74
2021/11/13 03:15:14;;;;;;;9.40;7.00;;;;;;;-0.79;100.00;95737.28;5090389;28;24420;-74
2021/11/13 03:17:41;;;;;;;7.70;7.00;;;;;;;-0.71;100.00;95736.31;5090598;28;24427;-74
2021/11/13 03:20:09;;;;;;;7.72;6.97;;;;;;;-0.63;100.00;95734.44;5090608;28;24426;-73
2021/11/13 03:22:38;;;;;;;7.57;6.82;;;;;;;-0.59;100.00;95736.91;5090246;28;24424;-73
2021/11/13 03:25:05;;;;;;;7.47;6.78;;;;;;;-0.47;100.00;95728.19;5090348;28;24986;-73
2021/11/13 03:27:33;;;;;;;9.95;6.97;;;;;;;-0.37;100.00;95726.28;5090606;28;24418;-73
2021/11/13 03:30:03;;;;;;;8.48;6.75;;;;;;;-0.40;100.00;95727.22;5090470;28;24430;-73
2021/11/13 03:32:30;;;;;;;9.15;8.27;;;;;;;-0.50;100.00;95731.63;5090362;28;24437;-73
2021/11/13 03:34:56;;;;;;;15.10;10.10;;;;;;;-0.57;100.00;95726.69;5090074;28;24414;-73
2021/11/13 03:37:23;;;;;;;14.77;9.02;;;;;;;-0.45;100.00;95723.91;5090555;28;24414;-74
2021/11/13 03:39:49;;;;;;;20.90;10.73;;;;;;;-0.58;100.00;95732.66;5090887;28;24410;-73
2021/11/13 03:42:16;;;;;;;14.30;9.88;;;;;;;-0.56;100.00;95724.13;5090525;28;24966;-73
2021/11/13 03:44:42;;;;;;;10.98;9.23;;;;;;;-0.43;100.00;95727.25;5089856;28;24441;-73
2021/11/13 03:47:10;;;;;;;9.82;8.93;;;;;;;-0.32;100.00;95732.97;5090259;28;24961;-73
2021/11/13 03:49:37;;;;;;;10.10;8.73;;;;;;;-0.15;100.00;95726.66;5090150;28;24421;-74
2021/11/13 03:52:04;;;;;;;11.50;9.45;;;;;;;-0.04;100.00;95732.34;5090469;28;24425;-74
2021/11/13 03:54:32;;;;;;;10.35;8.38;;;;;;;0.02;100.00;95733.94;5090113;28;24418;-74
2021/11/13 03:56:59;;;;;;;9.85;8.80;;;;;;;0.06;100.00;95725.38;5093990;28;24418;-74
2021/11/13 03:59:26;;;;;;;9.07;8.10;;;;;;;0.10;100.00;95727.81;5094250;28;24422;-73
2021/11/13 04:01:53;;;;;;;10.40;8.18;;;;;;;0.12;100.00;95726.06;5093939;28;24947;-73
2021/11/13 04:04:21;;;;;;;10.23;8.50;;;;;;;0.24;100.00;95719.84;5093940;28;24421;-73
2021/11/13 04:06:47;;;;;;;8.75;7.85;;;;;;;0.24;100.00;95722.41;5093792;28;24422;-74
2021/11/13 04:09:14;;;;;;;8.73;7.93;;;;;;;0.29;100.00;95715.47;5094121;28;24776;-74
2021/11/13 04:11:40;;;;;;;9.20;8.07;;;;;;;0.31;100.00;95718.00;5095082;28;24795;-74
2021/11/13 04:14:07;;;;;;;9.10;8.20;;;;;;;0.38;100.00;95719.53;5105637;28;24453;-74
2021/11/13 04:16:33;;;;;;;10.30;8.20;;;;;;;0.57;100.00;95720.75;5113738;28;24986;-73
2021/11/13 04:19:00;;;;;;;8.23;7.40;;;;;;;0.48;100.00;95714.19;5114148;28;24425;-73
2021/11/13 04:21:28;;;;;;;8.77;7.97;;;;;;;0.63;100.00;95709.56;5114080;28;24938;-74
2021/11/13 04:23:55;;;;;;;8.98;8.00;;;;;;;0.49;100.00;95712.47;5095610;28;24438;-73
2021/11/13 04:26:21;;;;;;;12.70;9.80;;;;;;;0.34;100.00;95702.66;5093352;28;24445;-74
2021/11/13 04:28:47;;;;;;;8.48;7.60;;;;;;;0.21;100.00;95704.63;5093772;28;24422;-74
2021/11/13 04:31:15;;;;;;;8.57;7.35;;;;;;;0.26;100.00;95704.53;5101066;28;24440;-73
2021/11/13 04:33:41;;;;;;;9.35;7.70;;;;;;;0.30;100.00;95706.13;5114179;28;24426;-74
2021/11/13 04:36:10;;;;;;;7.40;6.70;;;;;;;0.07;100.00;95715.13;5113737;28;24410;-74
2021/11/13 04:38:38;;;;;;;7.03;6.38;;;;;;;0.15;100.00;95712.41;5114016;28;24507;-73
2021/11/13 04:41:07;;;;;;;7.68;6.88;;;;;;;0.29;100.00;95705.28;5113711;28;24954;-73
2021/11/13 04:43:33;;;;;;;8.48;7.55;;;;;;;0.36;100.00;95706.00;5113727;28;24416;-73
2021/11/13 04:46:00;;;;;;;8.52;7.65;;;;;;;0.14;100.00;95711.56;5113601;28;24445;-71
2021/11/13 04:48:26;;;;;;;8.75;7.15;;;;;;;0.27;100.00;95706.22;5103957;28;24983;-71
2021/11/13 04:50:56;;;;;;;7.15;6.55;;;;;;;0.37;100.00;95702.56;5093248;28;24441;-72
2021/11/13 04:53:23;;;;;;;7.20;6.50;;;;;;;0.35;100.00;95710.25;5093271;28;25095;-72
2021/11/13 04:55:51;;;;;;;9.27;6.68;;;;;;;0.48;100.00;95710.78;5092956;28;24418;-71
2021/11/13 04:58:17;;;;;;;8.38;7.47;;;;;;;0.26;100.00;95713.03;5093283;28;24425;-71
2021/11/13 05:00:44;;;;;;;7.18;6.47;;;;;;;0.23;100.00;95711.38;5096053;28;24437;-71
2021/11/13 05:03:10;;;;;;;6.97;6.28;;;;;;;0.35;100.00;95722.16;5113511;28;24437;-71
2021/11/13 05:05:37;;;;;;;8.30;6.50;;;;;;;0.51;100.00;95731.09;5113182;28;24798;-72
2021/11/13 05:08:04;;;;;;;7.37;6.37;;;;;;;0.60;100.00;95730.88;5113019;28;24425;-72
2021/11/13 05:10:30;;;;;;;9.10;7.22;;;;;;;0.88;100.00;95730.19;5113340;28;24421;-73
2021/11/13 05:12:58;;;;;;;9.67;7.37;;;;;;;0.69;100.00;95724.72;5113150;28;24522;-73
2021/11/13 05:15:25;;;;;;;9.90;7.80;;;;;;;0.74;100.00;95733.06;5112798;28;24971;-73
2021/11/13 05:17:51;;;;;;;8.50;6.70;;;;;;;0.69;100.00;95725.53;5113055;28;24421;-73
2021/11/13 05:20:19;;;;;;;9.20;7.22;;;;;;;0.39;100.00;95737.31;5112979;28;24421;-73
2021/11/13 05:22:47;;;;;;;7.15;6.55;;;;;;;0.53;100.00;95725.97;5113035;28;24414;-72
2021/11/13 05:25:17;;;;;;;7.53;6.80;;;;;;;0.57;100.00;95730.97;5112446;28;24451;-72
2021/11/13 05:27:44;;;;;;;8.25;7.40;;;;;;;0.82;100.00;95725.25;5113197;28;24429;-73
2021/11/13 05:30:14;;;;;;;8.07;7.27;;;;;;;0.76;100.00;95728.78;5113011;28;24824;-73
2021/11/13 05:32:41;;;;;;;8.70;7.30;;;;;;;0.78;100.00;95721.94;5107191;28;24449;-74
2021/11/13 05:35:09;;;;;;;9.85;7.30;;;;;;;0.58;100.00;95719.88;5111778;28;24432;-72
2021/11/13 05:37:36;;;;;;;7.75;7.05;;;;;;;0.48;100.00;95718.41;5108111;28;24433;-73
2021/11/13 05:40:03;;;;;;;8.25;7.05;;;;;;;0.48;100.00;95720.97;5107418;28;24430;-73
2021/11/13 05:42:30;;;;;;;9.57;8.23;;;;;;;0.33;100.00;95721.34;5110657;28;24445;-74
2021/11/13 05:44:56;;;;;;;11.65;7.93;;;;;;;0.37;100.00;95717.84;5112028;28;25009;-74
2021/11/13 05:47:25;;;;;;;9.77;7.90;;;;;;;0.33;100.00;95718.78;5112806;28;24433;-74
2021/11/13 05:49:52;;;;;;;9.30;7.17;;;;;;;0.43;100.00;95707.50;5112265;28;24429;-74
2021/11/13 05:52:18;;;;;;;8.02;7.25;;;;;;;0.59;100.00;95707.97;5112097;28;24456;-73
2021/11/13 05:54:46;;;;;;;10.43;8.02;;;;;;;0.69;100.00;95702.59;5112205;28;24966;-74
2021/11/13 05:57:12;;;;;;;9.07;7.53;;;;;;;0.67;100.00;95701.81;5110724;28;24441;-72
2021/11/13 05:59:39;;;;;;;8.23;7.05;;;;;;;0.65;100.00;95707.81;5112317;28;24441;-74
2021/11/13 06:02:06;;;;;;;8.55;7.15;;;;;;;0.55;100.00;95707.22;5112085;28;24441;-74
2021/11/13 06:04:34;;;;;;;8.65;6.95;;;;;;;0.56;100.00;95708.91;5111895;28;24414;-74
2021/11/13 06:07:00;;;;;;;8.25;7.18;;;;;;;0.57;100.00;95708.03;5111947;28;24429;-74
2021/11/13 06:09:27;;;;;;;8.63;6.57;;;;;;;0.64;100.00;95711.25;5112145;28;24433;-73
2021/11/13 06:11:53;;;;;;;8.18;7.18;;;;;;;0.70;100.00;95706.84;5105999;28;25009;-74
2021/11/13 06:14:20;;;;;;;8.63;7.63;;;;;;;0.70;100.00;95698.34;5111831;28;24795;-73
2021/11/13 06:16:46;;;;;;;9.00;7.55;;;;;;;0.72;100.00;95701.69;5111679;28;24784;-74
2021/11/13 06:19:13;;;;;;;7.88;6.88;;;;;;;0.78;100.00;95700.69;5108681;28;24452;-74
2021/11/13 06:21:41;;;;;;;7.95;7.00;;;;;;;0.71;100.00;95703.41;5107858;28;24437;-73
2021/11/13 06:24:10;;;;;;;47.97;17.58;;;;;;;0.65;100.00;95712.94;5111926;28;24440;-73
2021/11/13 06:26:36;;;;;;;21.73;10.43;;;;;;;0.63;100.00;95705.34;5111649;28;24448;-74
2021/11/13 06:29:03;;;;;;;15.65;9.48;;;;;;;0.69;100.00;95702.59;5111908;28;24826;-74
2021/11/13 06:31:29;;;;;;;12.23;7.25;;;;;;;0.70;100.00;95700.88;5111573;28;24433;-73
2021/11/13 06:33:56;;;;;;;8.77;6.10;;;;;;;0.64;100.00;95708.72;5111456;28;24508;-74
2021/11/13 06:36:22;;;;;;;7.88;6.38;;;;;;;0.74;100.00;95705.03;5111285;28;24779;-74
2021/11/13 06:38:50;;;;;;;6.43;5.80;;;;;;;0.87;100.00;95697.94;5111483;28;24428;-74
2021/11/13 06:41:17;;;;;;;6.55;5.88;;;;;;;0.78;100.00;95695.59;5111273;28;24418;-74
2021/11/13 06:43:43;;;;;;;6.90;5.85;;;;;;;0.86;100.00;95697.09;5111165;28;24420;-73
2021/11/13 06:46:10;;;;;;;6.03;5.32;;;;;;;0.67;100.00;95703.53;5110519;28;24468;-72
2021/11/13 06:48:36;;;;;;;6.23;5.63;;;;;;;0.68;100.00;95695.00;5111287;28;24422;-73
2021/11/13 06:51:03;;;;;;;6.65;5.45;;;;;;;0.59;100.00;95698.59;5111614;28;24475;-74
2021/11/13 06:53:29;;;;;;;5.78;5.28;;;;;;;0.74;100.00;95692.28;5111580;28;24775;-74
2021/11/13 06:55:57;;;;;;;8.95;5.55;;;;;;;0.68;100.00;95697.56;5110978;28;24413;-74
2021/11/13 06:58:24;;;;;;;6.40;5.78;;;;;;;0.63;100.00;95696.81;5111392;28;24524;-74
2021/11/13 07:00:50;;;;;;;10.02;5.65;;;;;;;0.68;100.00;95710.31;5111550;28;24428;-74
2021/11/13 07:03:17;;;;;;;8.43;6.03;;;;;;;0.68;100.00;95703.50;5111166;28;24432;-74
2021/11/13 07:05:43;;;;;;;6.20;5.60;;;;;;;0.76;100.00;95702.47;5110915;28;24447;-74
2021/11/13 07:08:10;;;;;;;6.73;5.50;;;;;;;0.88;100.00;95710.63;5111368;28;24417;-74
2021/11/13 07:10:36;;;;;;;7.47;6.10;;;;;;;0.79;100.00;95712.59;5111407;28;24428;-74
2021/11/13 07:13:05;;;;;;;7.18;6.47;;;;;;;0.73;100.00;95706.75;5111085;28;24421;-74
2021/11/13 07:15:32;;;;;;;6.93;5.78;;;;;;;0.76;100.00;95710.09;5110688;28;24417;-74
2021/11/13 07:18:00;;;;;;;8.00;5.82;;;;;;;0.81;100.00;95718.47;5111125;28;25012;-74
2021/11/13 07:20:26;;;;;;;6.40;5.47;;;;;;;0.97;100.00;95719.75;5111308;28;24417;-74
2021/11/13 07:22:54;;;;;;;8.10;5.77;;;;;;;1.04;100.00;95721.28;5111336;28;24432;-73
2021/11/13 07:25:22;;;;;;;10.07;5.60;;;;;;;0.99;100.00;95722.25;5111060;28;24502;-74
2021/11/13 07:27:48;;;;;;;9.32;6.20;;;;;;;0.95;100.00;95727.44;5111276;28;24440;-74
2021/11/13 07:30:19;;;;;;;7.43;6.25;;;;;;;1.01;100.00;95730.72;5110759;28;24807;-73
2021/11/13 07:32:46;;;;;;;7.63;6.22;;;;;;;1.08;100.00;95724.59;5111077;28;24970;-74
2021/11/13 07:35:13;;;;;;;7.78;6.13;;;;;;;1.09;100.00;95728.81;5106392;28;24719;-74
2021/11/13 07:37:40;;;;;;;7.05;5.45;;;;;;;1.17;100.00;95732.81;5097797;28;24438;-72
2021/11/13 07:40:07;;;;;;;6.50;5.40;;;;;;;1.18;100.00;95733.66;5107269;28;24799;-72
2021/11/13 07:42:34;;;;;;;8.25;5.80;;;;;;;1.24;100.00;95727.56;5110648;28;24811;-72
2021/11/13 07:45:04;;;;;;;6.38;5.72;;;;;;;1.31;100.00;95723.97;5110325;28;24425;-72
2021/11/13 07:47:32;;;;;;;10.00;6.05;;;;;;;1.31;100.00;95717.13;5090442;28;24442;-72
2021/11/13 07:49:59;;;;;;;6.37;5.73;;;;;;;1.41;100.00;95718.56;5090601;28;24852;-71
2021/11/13 07:52:25;;;;;;;8.90;7.45;;;;;;;1.41;100.00;95720.28;5090455;28;25033;-71
2021/11/13 07:54:52;;;;;;;7.00;6.30;;;;;;;1.58;100.00;95717.25;5090002;28;24433;-72
2021/11/13 07:57:18;;;;;;;6.43;5.80;;;;;;;1.64;100.00;95717.91;5090188;28;24977;-71
2021/11/13 07:59:45;;;;;;;6.85;5.80;;;;;;;1.77;100.00;95722.66;5090553;28;24425;-72
2021/11/13 08:02:11;;;;;;;6.85;6.05;;;;;;;1.76;100.00;95734.59;5090399;28;24831;-72
2021/11/13 08:04:39;;;;;;;6.97;6.25;;;;;;;1.71;100.00;95728.78;5094599;28;24429;-73
2021/11/13 08:07:06;;;;;;;8.25;6.50;;;;;;;1.74;100.00;95730.41;5110293;28;24449;-71
2021/11/13 08:09:32;;;;;;;13.30;10.57;;;;;;;1.76;100.00;95726.94;5110579;28;24510;-72
2021/11/13 08:11:59;;;;;;;10.05;6.97;;;;;;;1.80;100.00;95732.78;5110651;28;24767;-72
2021/11/13 08:14:25;;;;;;;8.25;6.85;;;;;;;1.86;100.00;95733.44;5110507;28;24421;-72
2021/11/13 08:16:52;;;;;;;6.85;6.15;;;;;;;1.93;100.00;95729.84;5110485;28;24410;-72
2021/11/13 08:19:18;;;;;;;8.60;7.25;;;;;;;2.02;100.00;95743.22;5110363;28;24993;-73
2021/11/13 08:21:46;;;;;;;6.70;6.07;;;;;;;2.12;100.00;95737.78;5110338;28;24428;-72
2021/11/13 08:24:15;;;;;;;7.30;6.00;;;;;;;2.30;100.00;95745.75;5110385;28;24402;-72
2021/11/13 08:26:41;;;;;;;6.65;5.90;;;;;;;2.45;100.00;95735.06;5110026;28;24541;-72
2021/11/13 08:29:09;;;;;;;10.52;6.55;;;;;;;2.47;100.00;95743.50;5110387;28;24420;-70
2021/11/13 08:31:35;;;;;;;8.07;6.05;;;;;;;2.54;100.00;95742.44;5110653;28;24429;-73
2021/11/13 08:34:02;;;;;;;6.07;5.28;;;;;;;2.69;100.00;95736.00;5110475;28;24418;-72
2021/11/13 08:36:28;;;;;;;6.47;5.47;;;;;;;2.81;100.00;95732.19;5110131;28;24417;-72
2021/11/13 08:38:56;;;;;;;8.32;6.10;;;;;;;2.97;100.00;95725.72;5110261;28;24780;-72
2021/11/13 08:41:23;;;;;;;7.00;5.78;;;;;;;3.16;100.00;95733.59;5110245;28;24771;-72
2021/11/13 08:43:50;;;;;;;8.45;6.43;;;;;;;3.48;100.00;95732.44;5113470;28;24414;-74
2021/11/13 08:46:17;;;;;;;8.70;5.78;;;;;;;3.56;100.00;95727.91;5113487;28;24453;-74
2021/11/13 08:48:44;;;;;;;7.77;6.13;;;;;;;3.69;100.00;95724.91;5113897;28;24506;-74
2021/11/13 08:51:10;;;;;;;7.93;6.13;;;;;;;3.75;100.00;95719.56;5113650;28;24946;-74
2021/11/13 08:53:37;;;;;;;6.85;5.60;;;;;;;3.84;100.00;95708.97;5113461;28;24492;-72
2021/11/13 08:56:05;;;;;;;6.80;5.22;;;;;;;3.89;100.00;95714.72;5113636;28;24425;-75
2021/11/13 08:58:32;;;;;;;6.07;5.47;;;;;;;3.98;100.00;95711.00;5113909;28;24410;-72
2021/11/13 09:01:01;;;;;;;6.28;5.50;;;;;;;4.03;100.00;95721.91;5113503;28;24417;-73
2021/11/13 09:03:32;;;;;;;13.85;5.50;;;;;;;4.16;100.00;95712.88;5113475;28;24433;-73
2021/11/13 09:06:01;;;;;;;6.18;5.25;;;;;;;4.15;100.00;95711.19;5113017;28;24428;-73
2021/11/13 09:08:28;;;;;;;7.78;5.60;;;;;;;4.14;100.00;95706.97;5114120;28;24428;-74
2021/11/13 09:10:55;;;;;;;7.28;5.57;;;;;;;4.11;100.00;95723.28;5113765;28;24434;-72
2021/11/13 09:13:26;;;;;;;7.80;5.72;;;;;;;4.10;100.00;95723.34;5113585;28;24417;-72
2021/11/13 09:15:54;;;;;;;7.63;5.80;;;;;;;4.17;100.00;95714.53;5113643;28;24417;-75
2021/11/13 09:18:21;;;;;;;6.70;6.00;;;;;;;4.10;100.00;95728.47;5114940;28;24425;-72
2021/11/13 09:20:47;;;;;;;8.20;5.57;;;;;;;4.13;100.00;95726.63;5113166;28;24491;-74
2021/11/13 09:23:14;;;;;;;7.23;5.83;;;;;;;4.13;100.00;95718.94;5113028;28;24425;-72
2021/11/13 09:25:41;;;;;;;8.07;5.90;;;;;;;4.15;100.00;95723.16;5114308;28;24432;-72
2021/11/13 09:28:07;;;;;;;8.02;5.85;;;;;;;4.20;100.00;95711.03;5113875;28;24444;-74
2021/11/13 09:30:37;;;;;;;7.50;6.43;;;;;;;4.22;100.00;95714.34;5113055;28;24428;-73
2021/11/13 09:33:04;;;;;;;5.75;4.82;;;;;;;4.26;100.00;95709.03;5113104;28;24475;-73
2021/11/13 09:35:31;;;;;;;6.47;4.90;;;;;;;4.28;100.00;95709.81;5112548;28;24416;-74
2021/11/13 09:37:58;;;;;;;5.95;5.20;;;;;;;4.32;100.00;95719.06;5112981;28;24757;-75
2021/11/13 09:40:28;;;;;;;7.30;5.10;;;;;;;4.36;100.00;95712.09;5113059;28;24429;-73
2021/11/13 09:42:57;;;;;;;8.90;5.50;;;;;;;4.33;100.00;95707.91;5113244;28;24425;-75
2021/11/13 09:45:25;;;;;;;6.25;5.40;;;;;;;4.39;100.00;95714.53;5112986;28;24495;-74
2021/11/13 09:47:55;;;;;;;9.05;5.47;;;;;;;4.42;100.00;95711.84;5112761;28;24445;-74
2021/11/13 09:50:24;;;;;;;7.70;5.25;;;;;;;4.46;100.00;95717.69;5113199;28;24425;-75
2021/11/13 09:52:52;;;;;;;5.63;4.60;;;;;;;4.54;100.00;95719.06;5113139;28;24425;-74
2021/11/13 09:55:21;;;;;;;6.03;5.15;;;;;;;4.63;100.00;95717.00;5112694;28;24787;-74
2021/11/13 09:57:49;;;;;;;6.65;5.03;;;;;;;4.73;100.00;95713.19;5112527;28;24893;-74
2021/11/13 10:00:19;;;;;;;7.95;5.65;;;;;;;4.81;100.00;95706.00;5112882;27;24418;-74
2021/11/13 10:02:46;;;;;;;9.55;7.47;;;;;;;4.89;100.00;95703.94;5112904;28;24417;-72
2021/11/13 10:05:14;;;;;;;13.73;6.72;;;;;;;4.99;100.00;95712.09;5111971;28;24414;-74
2021/11/13 10:07:41;;;;;;;7.87;6.37;;;;;;;5.08;100.00;95698.91;5112264;28;24522;-73
2021/11/13 10:10:13;;;;;;;10.23;6.15;;;;;;;5.15;100.00;95702.84;5112207;28;24425;-72
2021/11/13 10:12:42;;;;;;;6.45;5.47;;;;;;;5.27;100.00;95704.09;5111979;28;24954;-74
2021/11/13 10:15:26;;;;;;;8.18;6.15;;;;;;;5.35;100.00;95709.72;5111904;28;24413;-72
2021/11/13 10:18:09;;;;;;;10.45;5.43;;;;;;;5.45;100.00;95702.44;5111874;28;24986;-75
2021/11/13 10:20:42;;;;;;;11.10;6.78;;;;;;;5.50;100.00;95701.34;5111942;28;24421;-73
2021/11/13 10:23:35;;;;;;;8.73;5.30;;;;;;;5.55;100.00;95704.53;5131994;28;24428;-72
2021/11/13 10:26:05;;;;;;;6.25;5.10;;;;;;;5.58;100.00;95701.00;5123406;28;24433;-73
2021/11/13 10:28:32;;;;;;;8.07;6.00;;;;;;;5.64;100.00;95698.19;5116567;28;24446;-73
2021/11/13 10:31:08;;;;;;;11.77;7.28;;;;;;;5.64;100.00;95692.22;5100858;28;24508;-73
2021/11/13 10:33:35;;;;;;;19.70;12.60;;;;;;;5.63;100.00;95693.09;5097194;28;25000;-75
2021/11/13 10:36:05;;;;;;;9.63;7.32;;;;;;;5.67;100.00;95692.03;5124694;28;24434;-73
2021/11/13 10:38:35;;;;;;;12.90;6.22;;;;;;;5.67;100.00;95692.88;5110140;28;24426;-73
2021/11/13 10:41:06;;;;;;;12.03;6.87;;;;;;;5.67;100.00;95681.75;5133315;28;24530;-73
2021/11/13 10:43:38;;;;;;;10.27;7.82;;;;;;;5.67;100.00;95680.03;5124456;28;24457;-74
2021/11/13 10:46:07;;;;;;;13.43;6.38;;;;;;;5.67;100.00;95682.59;5113193;28;24459;-73
2021/11/13 10:48:40;;;;;;;10.90;6.63;;;;;;;5.68;100.00;95683.47;5111858;28;24434;-72
2021/11/13 10:51:11;;;;;;;7.43;5.55;;;;;;;5.70;100.00;95677.31;5111758;28;24430;-73
2021/11/13 10:53:39;;;;;;;7.85;5.32;;;;;;;5.72;100.00;95675.53;5111415;28;24436;-73
2021/11/13 10:56:13;;;;;;;6.47;5.32;;;;;;;5.75;100.00;95672.84;5111367;28;24433;-72
2021/11/13 10:58:43;;;;;;;27.00;13.63;;;;;;;5.81;100.00;95669.13;5111282;28;24413;-72
2021/11/13 11:01:12;;;;;;;17.80;10.20;;;;;;;5.80;100.00;95663.16;5111205;28;24950;-72
2021/11/13 11:03:41;;;;;;;42.25;21.05;;;;;;;5.80;100.00;95668.31;5111557;28;24421;-72
2021/11/13 11:06:10;;;;;;;18.80;10.73;;;;;;;5.79;100.00;95671.78;5110535;28;24418;-72
2021/11/13 11:08:41;;;;;;;10.93;6.20;;;;;;;5.81;100.00;95669.13;5111277;28;24448;-73
2021/11/13 11:11:26;;;;;;;9.02;5.88;;;;;;;5.83;100.00;95662.19;5111295;28;24437;-73
2021/11/13 11:13:54;;;;;;;8.52;5.97;;;;;;;5.82;100.00;95663.94;5111456;28;24417;-73
2021/11/13 11:16:27;;;;;;;7.88;6.40;;;;;;;5.82;100.00;95675.94;5110878;28;24414;-72
2021/11/13 11:18:56;;;;;;;12.13;5.57;;;;;;;5.82;100.00;95660.50;5111122;28;24439;-73
2021/11/13 11:21:45;;;;;;;7.60;6.03;;;;;;;5.85;100.00;95662.13;5110997;28;24418;-73
2021/11/13 11:24:13;;;;;;;6.32;5.70;;;;;;;5.87;100.00;95658.59;5111269;28;24779;-72
2021/11/13 11:26:41;;;;;;;5.80;5.30;;;;;;;5.88;100.00;95659.41;5110528;28;24432;-73
2021/11/13 11:29:08;;;;;;;5.20;4.68;;;;;;;5.89;100.00;95654.19;5110993;28;24533;-72